Flight Track Log - Related Links

Times and Time Zones

All times are in EDT time to prevent confusion due to time zone crossing. See the UAL407 flight status page for this flight to view local times or setup timezone preferences in your user account.

Time Position Orientation Groundspeed Altitude Reporting Facility
EDT Latitude Longitude Course Direction KTS MPH feet Rate Location/Type
Fri 09:37:25 PM 39.8500 -104.7833 270° West 195 224 6,900  Level Denver TRACON
Fri 09:38:31 PM 39.8333 -104.8833 258° West 264 304 8,000 1,320 Climbing Denver TRACON
Fri 09:39:00 PM 40.0596 -105.0216 281° West  Level Estimated
Fri 09:39:05 PM 39.8175 -104.9297 246° West 268 308 9,100  Level Denver Center
Fri 09:40:00 PM 40.0258 -105.1595 252° West  Level FlightAware
Fri 09:40:07 PM 39.7914 -105.0322 252° West 298 343 11,000  Level Denver Center
Fri 09:41:00 PM 40.0919 -105.2757 270° West  Level Estimated
Fri 09:41:09 PM 39.7631 -105.1444 252° West 307 353 13,300  Level Denver Center
Fri 09:42:00 PM 40.1580 -105.3921 270° West  Level Estimated
Fri 09:42:10 PM 39.7361 -105.2528 252° West 314 361 15,000  Level Denver Center
Fri 09:43:12 PM 39.7111 -105.3881 257° West 362 417 16,400 1,645 Climbing Denver Center
Fri 09:44:14 PM 39.7081 -105.5208 268° West 368 423 18,400 1,790 Climbing Denver Center
Fri 09:45:16 PM 39.7147 -105.6550 274° West 370 426 20,100 1,355 Climbing Denver Center
Fri 09:46:18 PM 39.7639 -105.7964 294° West 404 465 21,200 1,366 Climbing Denver Center
Fri 09:47:19 PM 39.8128 -105.9264 296° West 398 458 22,900 1,415 Climbing Denver Center
Fri 09:48:21 PM 39.8608 -106.0567 296° West 400 460 24,100 1,113 Climbing Denver Center
Fri 09:49:23 PM 39.9003 -106.1967 290° West 411 473 25,200 1,161 Climbing Denver Center
Fri 09:50:25 PM 39.9369 -106.3378 289° West 413 475 26,500 1,016 Climbing Denver Center
Fri 09:51:27 PM 40.0100 -106.4597 308° West 425 489 27,300 871 Climbing Denver Center
Fri 09:52:29 PM 40.0678 -106.6158 296° West 439 505 28,300 780 Climbing Denver Center
Fri 09:53:30 PM 40.1267 -106.7772 296° West 442 509 28,900 780 Climbing Denver Center
Fri 09:54:32 PM 40.1781 -106.9206 295° West 452 520 29,900 919 Climbing Denver Center
Fri 09:55:34 PM 40.2394 -107.0881 296° West 457 526 30,800 1,016 Climbing Denver Center
Fri 09:56:36 PM 40.2906 -107.2317 295° West 457 526 32,000 871 Climbing Denver Center
Fri 09:57:38 PM 40.3436 -107.3750 296° West 457 526 32,600 581 Climbing Denver Center
Fri 09:58:40 PM 40.4031 -107.5450 295° West 459 528 33,200 634 Climbing Denver Center
Fri 09:59:41 PM 40.4558 -107.6919 295° West 464 534 33,900 829 Climbing Denver Center
Fri 10:00:43 PM 40.5169 -107.8625 295° West 464 534 34,900 774 Climbing Denver Center
Fri 10:01:45 PM 40.5686 -108.0097 295° West 465 535 35,500 532 Climbing Denver Center
Fri 10:02:47 PM 40.6286 -108.1803 295° West 463 533 36,000 242 Climbing Denver Center
Fri 10:03:49 PM 40.6792 -108.3275 294° West 462 532 36,000  Level Denver Center
Fri 10:04:50 PM 40.7350 -108.4917 294° West 470 541 36,000  Level Denver Center
Fri 10:05:52 PM 40.7942 -108.6653 294° West 465 535 36,000 -48 Level Denver Center
Fri 10:06:54 PM 40.8444 -108.8125 294° West 459 528 35,900 -57 Descending Denver Center
Fri 10:07:38 PM 40.8867 -108.9356 294° West 459 528 35,900  Level Salt Center
Fri 10:08:40 PM 40.9358 -109.0828 294° West 457 526 35,900 49 Level Salt Center
Fri 10:09:41 PM 40.9853 -109.2300 294° West 456 525 36,000 49 Climbing Salt Center
Fri 10:10:43 PM 41.0428 -109.4022 294° West 455 524 36,000  Level Salt Center
Fri 10:11:44 PM 41.0925 -109.5511 294° West 457 526 36,000  Level Salt Center
Fri 10:12:46 PM 41.1411 -109.6997 294° West 456 525 36,000  Level Salt Center
Fri 10:13:47 PM 41.1981 -109.8703 294° West 452 520 36,000 -49 Level Salt Center
Fri 10:14:49 PM 41.2442 -110.0150 293° West 446 513 35,900 -48 Descending Salt Center
Fri 10:15:51 PM 41.2992 -110.1847 293° West 447 514 35,900  Level Salt Center
Fri 10:16:52 PM 41.3464 -110.3308 293° West 448 516 35,900 49 Level Salt Center
Fri 10:17:53 PM 41.3964 -110.4764 295° West 450 518 36,000 49 Climbing Salt Center
Fri 10:18:55 PM 41.4669 -110.6408 300° West 454 522 36,000  Level Salt Center
Fri 10:19:56 PM 41.5267 -110.7817 300° West 455 524 36,000  Level Salt Center
Fri 10:20:58 PM 41.5942 -110.9492 298° West 456 525 36,000  Level Salt Center
Fri 10:21:59 PM 41.6578 -111.0967 300° West 459 528 36,000  Level Salt Center
Fri 10:23:01 PM 41.7169 -111.2447 298° West 455 524 36,000  Level Salt Center
Fri 10:24:02 PM 41.7767 -111.3917 299° West 454 522 36,000  Level Salt Center
Fri 10:25:04 PM 41.8361 -111.5386 299° West 452 520 36,000  Level Salt Center
Fri 10:26:05 PM 41.8950 -111.6858 298° West 450 518 36,000  Level Salt Center
Fri 10:27:07 PM 41.9664 -111.8622 299° West 452 520 36,000  Level Salt Center
Fri 10:28:08 PM 42.0264 -112.0117 298° West 456 525 36,000  Level Salt Center
Fri 10:29:10 PM 42.0853 -112.1614 298° West 456 525 36,000  Level Salt Center
Fri 10:30:11 PM 42.1442 -112.3100 298° West 453 521 36,000  Level Salt Center
Fri 10:31:13 PM 42.2047 -112.4592 299° West 455 524 36,000  Level Salt Center
Fri 10:32:14 PM 42.2794 -112.5986 306° West 461 531 36,000  Level Salt Center
Fri 10:33:16 PM 42.3542 -112.7392 306° West 463 533 36,000  Level Salt Center
Fri 10:34:17 PM 42.4283 -112.8792 306° West 460 529 36,000  Level Salt Center
Fri 10:35:19 PM 42.5175 -113.0464 306° West 459 528 36,000  Level Salt Center
Fri 10:36:20 PM 42.5914 -113.1883 305° West 461 531 36,000  Level Salt Center
Fri 10:37:22 PM 42.6658 -113.3283 306° West 459 528 36,000  Level Salt Center
Fri 10:38:24 PM 42.7372 -113.4642 306° West 456 525 36,000  Level Salt Center
Fri 10:39:25 PM 42.8186 -113.6228 305° West 457 526 36,000  Level Salt Center
Fri 10:40:27 PM 42.8886 -113.7581 305° West 457 526 36,000 -49 Level Salt Center
Fri 10:41:28 PM 42.9558 -113.8958 304° West 463 533 35,900  Descending Salt Center
Fri 10:42:30 PM 43.0433 -114.0656 305° West 456 525 36,000 49 Climbing Salt Center
Fri 10:43:31 PM 43.1164 -114.2078 305° West 459 528 36,000  Level Salt Center
Fri 10:44:33 PM 43.1908 -114.3536 305° West 461 531 36,000  Level Salt Center
Fri 10:45:34 PM 43.2644 -114.4975 305° West 461 531 36,000  Level Salt Center
Fri 10:46:36 PM 43.3364 -114.6417 304° West 459 528 36,000  Level Salt Center
Fri 10:47:37 PM 43.4083 -114.7872 304° West 461 531 36,000  Level Salt Center
Fri 10:48:39 PM 43.4808 -114.9319 305° West 460 529 36,000 -49 Level Salt Center
Fri 10:49:40 PM 43.5528 -115.0772 304° West 459 528 35,900  Descending Salt Center
Fri 10:50:42 PM 43.6253 -115.2256 304° West 465 535 36,000 49 Climbing Salt Center
Fri 10:51:43 PM 43.7128 -115.4042 304° West 468 539 36,000  Level Salt Center
Fri 10:52:45 PM 43.7847 -115.5528 304° West 467 537 36,000  Level Salt Center
Fri 10:53:46 PM 43.8575 -115.7019 304° West 468 539 36,000  Level Salt Center
Fri 10:54:48 PM 43.9297 -115.8533 304° West 469 540 36,000 -49 Level Salt Center
Fri 10:55:49 PM 44.0003 -116.0025 303° West 463 533 35,900  Descending Salt Center
Fri 10:56:51 PM 44.0772 -116.1492 306° West 466 536 36,000 49 Climbing Salt Center
Fri 10:57:52 PM 44.1522 -116.2967 305° West 464 534 36,000  Level Salt Center
Fri 10:58:54 PM 44.2272 -116.4447 305° West 462 532 36,000 -49 Level Salt Center
Fri 10:59:55 PM 44.3033 -116.5936 306° West 465 535 35,900  Descending Salt Center
Fri 11:00:57 PM 44.3789 -116.7431 305° West 467 537 36,000 49 Climbing Salt Center
Fri 11:01:58 PM 44.4550 -116.8933 305° West 471 542 36,000  Level Salt Center
Fri 11:02:59 PM 44.5456 -117.0739 305° West 472 543 36,000  Level Salt Center
Fri 11:04:01 PM 44.6200 -117.2231 305° West 468 539 36,000  Level Salt Center
Fri 11:05:02 PM 44.6944 -117.3739 305° West 470 541 36,000  Level Salt Center
Fri 11:06:04 PM 44.7700 -117.5244 305° West 470 541 36,000  Level Salt Center
Fri 11:07:05 PM 44.8425 -117.6753 304° West 467 537 36,000  Level Salt Center
Fri 11:07:43 PM 44.8861 -117.7650 304° West 464 534 36,000 -61 Level Seattle Center
Fri 11:08:44 PM 44.9581 -117.9136 304° West 461 531 35,900 -49 Descending Seattle Center
Fri 11:09:45 PM 45.0383 -118.0572 308° West 466 536 35,900 50 Level Seattle Center
Fri 11:10:45 PM 45.1250 -118.1819 315° West 472 543 36,000 50 Climbing Seattle Center
Fri 11:11:46 PM 45.2347 -118.3414 314° West 473 544 36,000  Level Seattle Center
Fri 11:12:47 PM 45.3256 -118.4744 314° West 472 543 36,000  Level Seattle Center
Fri 11:13:48 PM 45.4153 -118.6075 314° West 470 541 36,000  Level Seattle Center
Fri 11:14:48 PM 45.5053 -118.7408 314° West 470 541 36,000 -50 Level Seattle Center
Fri 11:15:49 PM 45.5942 -118.8744 314° West 469 540 35,900 -492 Descending Seattle Center
Fri 11:16:50 PM 45.6817 -119.0033 314° West 461 531 35,000 -942 Descending Seattle Center
Fri 11:17:50 PM 45.7631 -119.1281 313° West 443 510 34,000 -992 Descending Seattle Center
Fri 11:18:51 PM 45.8503 -119.2597 314° West 454 522 33,000 -934 Descending Seattle Center
Fri 11:19:52 PM 45.9358 -119.3889 314° West 451 519 32,100 -942 Descending Seattle Center
Fri 11:20:52 PM 46.0206 -119.5189 313° West 448 516 31,100 -992 Descending Seattle Center
Fri 11:21:53 PM 46.1014 -119.6422 313° West 433 498 30,100 -590 Descending Seattle Center
Fri 11:22:54 PM 46.1811 -119.7650 313° West 424 488 29,900 -50 Descending Seattle Center
Fri 11:23:54 PM 46.2564 -119.8939 310° West 422 486 30,000  Climbing Seattle Center
Fri 11:24:55 PM 46.3444 -120.0472 310° West 417 480 29,900  Descending Seattle Center
Fri 11:25:56 PM 46.4172 -120.1767 309° West 416 479 30,000 49 Climbing Seattle Center
Fri 11:26:57 PM 46.4900 -120.3047 310° West 415 478 30,000 -99 Level Seattle Center
Fri 11:27:57 PM 46.5633 -120.4347 309° West 416 479 29,800 -595 Descending Seattle Center
Fri 11:28:58 PM 46.6294 -120.5725 305° West 417 480 28,800 -934 Descending Seattle Center
Fri 11:29:59 PM 46.6939 -120.7067 305° West 408 470 27,900 -942 Descending Seattle Center
Fri 11:30:59 PM 46.7553 -120.8383 304° West 399 459 26,900 -992 Descending Seattle Center
Fri 11:32:00 PM 46.8169 -120.9672 305° West 393 452 25,900 -934 Descending Seattle Center
Fri 11:33:01 PM 46.8772 -121.0967 304° West 388 447 25,000 -1,131 Descending Seattle Center
Fri 11:34:02 PM 46.9375 -121.2228 305° West 379 436 23,600 -1,696 Descending Seattle Center
Fri 11:34:33 PM 46.9742 -121.2994 305° West 376 433 22,400 -1,900 Descending Seattle Center
Fri 11:35:02 PM 46.9956 -121.3475 303° West 373 429 21,700 -1,890 Descending Seattle Center
Fri 11:35:46 PM 47.0431 -121.4500 304° West 363 418 20,100 -2,066 Descending Seattle Center
Fri 11:36:03 PM 47.0614 -121.4892 305° West 366 421 19,600 -1,475 Descending Seattle Center
Fri 11:36:47 PM 47.0989 -121.5686 305° West 347 399 18,600 -1,574 Descending Seattle Center
Fri 11:37:04 PM 47.1142 -121.6050 302° West 352 405 18,000 -1,700 Descending Seattle Center
Fri 11:37:47 PM 47.1553 -121.6906 305° West 334 384 16,900 -1,500 Descending Seattle Center
Fri 11:38:04 PM 47.1661 -121.7164 302° West 336 387 16,500 -1,869 Descending Seattle Center
Fri 11:38:48 PM 47.2067 -121.8022 305° West 327 376 15,000 -1,967 Descending Seattle Center
Fri 11:39:05 PM 47.2169 -121.8267 302° West 329 379 14,500 -1,636 Descending Seattle Center
Fri 11:39:43 PM 47.2511 -121.9050 303° West 325 374 13,500 -1,672 Descending Seattle Center
Fri 11:40:06 PM 47.2708 -121.9436 307° West 323 372 12,800 -1,701 Descending Seattle Center
Fri 11:40:50 PM 47.3025 -122.0172 302° West 311 358 11,600 -1,770 Descending Seattle Center
Fri 11:41:07 PM 47.3175 -122.0489 305° West 310 357 11,000 -1,455 Descending Seattle Center
Fri 11:41:56 PM 47.3578 -122.1369 304° West 304 350 10,000 -1,000 Descending Seattle Center
Fri 11:42:07 PM 47.3639 -122.1508 303° West 300 345 10,000  Level Seattle Center
Fri 11:42:45 PM 47.4031 -122.1839 330° Northwest 280 322 10,000 -393 Level Seattle Center
Fri 11:43:08 PM 47.4328 -122.1886 354° North 275 316 9,600 -1,571 Descending Seattle Center
Fri 11:44:09 PM 47.5089 -122.1972 356° North 277 319 7,800 -1,904 Descending Seattle Center
Fri 11:44:52 PM 47.5675 -122.2011 357° North 276 318 6,300 -2,100 Descending Seattle Center
Fri 11:45:09 PM 47.5897 -122.2047 354° North 273 314 5,700 -1,418 Descending Seattle Center
Fri 11:45:47 PM 47.6364 -122.2089 357° North 271 312 5,000 -689 Descending Seattle Center
Fri 11:46:10 PM 47.6633 -122.2136 353° North 267 307 5,000 -575 Level Seattle Center
Fri 11:47:00 PM 47.7000 -122.2592 320° Northwest 226 260 4,300 -787 Descending Seattle Center
Fri 11:47:11 PM 47.6989 -122.2708 262° West 234 269 4,200 -300 Descending Seattle Center
Fri 11:48:00 PM 47.6619 -122.3100 216° Southwest 191 220 4,000 -197 Descending Seattle Center
Fri 11:48:12 PM 47.6542 -122.3119 190° South 195 224 4,000 -885 Level Seattle Center
Fri 11:49:01 PM 47.6086 -122.3197 187° South 186 214 3,100 -1,000 Descending Seattle Center
Fri 11:49:12 PM 47.6019 -122.3172 166° South 189 217 3,000 -787 Descending Seattle Center
Fri 11:50:02 PM 47.5592 -122.3175 180° South 176 203 2,300 -984 Descending Seattle Center
Fri 11:50:13 PM 47.5489 -122.3181 182° South 177 204 2,000 -889 Descending Seattle Center
Fri 11:50:56 PM 47.5197 -122.3194 182° South 156 180 1,500 -590 Descending Seattle Center
Fri 11:51:14 PM 47.5069 -122.3175 174° South 154 177 1,400 -658 Descending Seattle Center
Fri 11:52:09 PM 47.4731 -122.3192 182° South 132 152 700 -800 Descending Seattle Center
Fri 11:52:14 PM 47.4694 -122.3178 165° South 138 159 600 -273 Descending Seattle Center
Fri 11:53:15 PM 47.4381 -122.3192 182° South 137 158 400 -197 Descending Seattle Center

Login

Don't have an account? Register now (free) for customized features, flight alerts, and more!